Bothell, WA

4:40 PM PDT on October 30, 2014 (GMT -0700)
Misty | Change Station
CLOSE
Current Station
Personal Weather Station
Location: Bothell, WA
Elevation: 393 ft
Nearby Weather Stations

Elev 393 ft 47.84 °N, 122.20 °W | Updated 2 seconds ago

Overcast
Overcast
55.9 °F
Feels Like 55.9 °F
N
0.0
Wind Variable Wind from East
Gusts 2.0 mph

Today
High -- | Low -- °F
--% Chance of Precip.
Yesterday
High -- | Low -- °F
Precip. -- in
7:50 AM 5:53 PM
Waxing Crescent, 48% visible
Pressure 29.75 in
Visibility 10.0 miles
Clouds Few 5000 ft
Scattered Clouds 7000 ft
Mostly Cloudy 9000 ft
Dew Point 55 °F
Humidity 98%
Rainfall 0.36 in
Snow Depth Not available.
UV 1 out of 12
Pollen .30 out of 12
Air Quality Not available.
Flu Activity Not available.
METAR KPAE 302253Z 13006G17KT 10SM FEW050 SCT070 BKN090 14/12 A2975 RMK AO2 RAE46 SLP073 P0008 T01390117

More Conditions Fewer Conditions

Pressure 29.75 in
Visibility 10.0 miles
Clouds Few 5000 ft
Scattered Clouds 7000 ft
Mostly Cloudy 9000 ft
Dew Point 55 °F
Humidity 98%
Rainfall 0.36 in
Snow Depth Not available.
UV 1 out of 12
Pollen .30 out of 12
Air Quality Not available.
Flu Activity Not available.
METAR KPAE 302253Z 13006G17KT 10SM FEW050 SCT070 BKN090 14/12 A2975 RMK AO2 RAE46 SLP073 P0008 T01390117

More Conditions Fewer Conditions

10-Day Weather Forecast

Almanac

Astronomy

Oct. 30, 2014 Rise Set
Actual Time
Civil Twilight
Nautical Twilight
Astronomical Twilight
Moon
Length of Visible Light
Length of Day
Tomorrow will be .
, % of the Moon is Illuminated

Today's Extremes

State Highs State Lows

Community

WunderPhotos

Upload Photos

1,766,496 photos uploaded!

WunderBlogs® & News

Nearby

Air Quality

  Air Quality AQ Index Pollutant
Not available.

Snow Depth

Station Depth Elevation

Earthquake Activity

City Distance Mag. Time & Date
Minimum magnitude displayed is 2.5.

Coastal Water Temperatures

Place Temperature

Nearby Weather Stations